createdAt,value
2023-12-05T00:02:23.070Z,31.17
2023-12-05T00:04:50.077Z,29.05
2023-12-05T00:07:20.604Z,34.13
2023-12-05T00:09:48.910Z,28.27
2023-12-05T00:12:19.014Z,29.20
2023-12-05T00:14:46.860Z,33.08
2023-12-05T00:17:13.966Z,34.58
2023-12-05T00:19:40.875Z,39.80
2023-12-05T00:22:10.916Z,31.35
2023-12-05T00:24:37.901Z,34.63
2023-12-05T00:27:05.306Z,37.33
2023-12-05T00:29:32.154Z,30.73
2023-12-05T00:31:59.227Z,34.90
2023-12-05T00:34:27.280Z,34.55
2023-12-05T00:36:54.518Z,33.20
2023-12-05T00:39:21.907Z,32.95
2023-12-05T00:41:54.594Z,33.55
2023-12-05T00:44:21.596Z,31.45
2023-12-05T00:46:48.841Z,34.20
2023-12-05T00:49:18.715Z,31.27
2023-12-05T00:51:47.326Z,36.35
2023-12-05T00:54:15.866Z,28.98
2023-12-05T00:56:43.051Z,32.83
2023-12-05T00:59:13.261Z,34.55
2023-12-05T01:01:40.358Z,35.05
2023-12-05T01:04:07.838Z,30.05
2023-12-05T01:06:35.114Z,33.33
2023-12-05T01:09:07.706Z,32.38
2023-12-05T01:11:37.960Z,29.17
2023-12-05T01:14:06.989Z,36.97
2023-12-05T01:16:34.336Z,30.85
2023-12-05T01:19:01.903Z,29.13
2023-12-05T01:21:29.773Z,30.38
2023-12-05T01:23:56.652Z,31.77
2023-12-05T01:26:27.136Z,34.80
2023-12-05T01:28:56.255Z,29.80
2023-12-05T01:31:24.087Z,32.42
2023-12-05T01:33:51.229Z,28.38
2023-12-05T01:36:21.305Z,29.27
2023-12-05T01:38:48.156Z,28.30
2023-12-05T01:41:15.349Z,30.08
2023-12-05T01:43:44.941Z,30.27
2023-12-05T01:46:12.835Z,31.80
2023-12-05T01:48:41.736Z,33.78
2023-12-05T01:51:10.446Z,30.70
2023-12-05T01:53:40.434Z,31.27
2023-12-05T01:56:09.741Z,37.05
2023-12-05T01:58:38.516Z,27.38
2023-12-05T02:01:09.309Z,31.83
2023-12-05T02:03:37.242Z,28.88
2023-12-05T02:06:05.268Z,30.98
2023-12-05T02:08:33.542Z,33.63
2023-12-05T02:11:00.971Z,32.92
2023-12-05T02:13:27.834Z,29.38
2023-12-05T02:16:04.828Z,30.98
2023-12-05T02:18:40.718Z,35.47
2023-12-05T02:21:20.992Z,34.20
2023-12-05T02:24:11.747Z,33.50
2023-12-05T02:26:58.863Z,36.63
2023-12-05T02:29:28.344Z,35.35
2023-12-05T02:31:56.309Z,33.50
2023-12-05T02:34:23.365Z,35.42
2023-12-05T02:37:05.303Z,37.50
2023-12-05T02:39:42.572Z,34.15
2023-12-05T02:42:13.169Z,35.10
2023-12-05T02:44:51.359Z,38.60
2023-12-05T02:47:23.421Z,32.30
2023-12-05T02:49:51.544Z,38.20
2023-12-05T02:52:18.611Z,36.38
2023-12-05T02:54:45.523Z,35.03
2023-12-05T02:57:12.841Z,31.08
2023-12-05T02:59:39.655Z,31.73
2023-12-05T03:02:06.766Z,38.63
2023-12-05T03:04:33.729Z,32.60
2023-12-05T03:07:01.066Z,33.60
2023-12-05T03:09:28.262Z,40.63
2023-12-05T03:11:55.311Z,34.08
2023-12-05T03:14:22.576Z,34.58
2023-12-05T03:16:54.267Z,34.63
2023-12-05T03:19:25.867Z,38.10
2023-12-05T03:21:57.192Z,42.53
2023-12-05T03:24:27.029Z,36.88
2023-12-05T03:26:55.442Z,41.38
2023-12-05T03:29:22.275Z,35.13
2023-12-05T03:31:49.499Z,35.08
2023-12-05T03:34:19.447Z,37.95
2023-12-05T03:36:46.650Z,39.88
2023-12-05T03:39:13.573Z,36.22
2023-12-05T03:41:41.074Z,35.42
2023-12-05T03:44:10.471Z,44.65
2023-12-05T03:46:37.828Z,37.33
2023-12-05T03:49:04.808Z,36.10
2023-12-05T03:51:31.954Z,37.03
2023-12-05T03:53:58.797Z,38.78
2023-12-05T03:56:26.930Z,33.17
2023-12-05T03:58:53.915Z,37.22
2023-12-05T04:01:20.982Z,37.83
2023-12-05T04:03:48.003Z,41.50
2023-12-05T04:06:22.950Z,39.35
2023-12-05T04:08:50.915Z,37.30
2023-12-05T04:11:30.417Z,40.63
2023-12-05T04:13:57.388Z,45.13
2023-12-05T04:16:25.145Z,39.35
2023-12-05T04:18:52.663Z,38.17
2023-12-05T04:21:22.441Z,40.63
2023-12-05T04:23:50.473Z,40.10
2023-12-05T04:26:22.124Z,38.35
2023-12-05T04:28:48.995Z,34.53
2023-12-05T04:31:16.584Z,42.97
2023-12-05T04:33:46.690Z,37.45
2023-12-05T04:36:17.189Z,40.50
2023-12-05T04:38:46.906Z,34.42
2023-12-05T04:41:18.407Z,30.95
2023-12-05T04:43:46.868Z,42.33
2023-12-05T04:46:17.006Z,39.15
2023-12-05T04:48:45.071Z,37.42
2023-12-05T04:51:12.554Z,41.60
2023-12-05T04:53:42.295Z,39.15
2023-12-05T04:56:10.081Z,34.70
2023-12-05T04:58:37.176Z,41.88
2023-12-05T05:01:08.019Z,32.67
2023-12-05T05:03:34.973Z,39.80
2023-12-05T05:06:02.284Z,37.00
2023-12-05T05:08:29.144Z,41.17
2023-12-05T05:10:56.254Z,34.35
2023-12-05T05:13:23.119Z,35.35
2023-12-05T05:15:50.182Z,38.08
2023-12-05T05:18:17.409Z,41.67
2023-12-05T05:20:47.600Z,42.90
2023-12-05T05:23:14.390Z,30.80
2023-12-05T05:25:42.508Z,36.35
2023-12-05T05:28:15.117Z,38.08
2023-12-05T05:30:44.077Z,37.47
2023-12-05T05:33:11.059Z,37.47
2023-12-05T05:35:38.115Z,39.95
2023-12-05T05:38:05.117Z,36.28
2023-12-05T05:40:34.791Z,41.42
2023-12-05T05:43:01.944Z,39.17
2023-12-05T05:45:29.105Z,38.55
2023-12-05T05:47:59.073Z,42.70
2023-12-05T05:50:31.463Z,48.13
2023-12-05T05:52:58.281Z,39.80
2023-12-05T05:55:27.367Z,36.50
2023-12-05T05:57:57.260Z,43.85
2023-12-05T06:00:25.702Z,38.35
2023-12-05T06:02:55.432Z,40.40
2023-12-05T06:05:22.638Z,37.65
2023-12-05T06:07:49.512Z,38.30
2023-12-05T06:10:17.583Z,35.25
2023-12-05T06:12:44.360Z,38.22
2023-12-05T06:15:11.716Z,32.88
2023-12-05T06:17:38.518Z,39.28
2023-12-05T06:20:06.983Z,33.83
2023-12-05T06:22:33.778Z,36.33
2023-12-05T06:25:01.209Z,38.70
2023-12-05T06:27:31.072Z,34.05
2023-12-05T06:30:03.549Z,35.70
2023-12-05T06:32:36.667Z,35.83
2023-12-05T06:35:03.934Z,40.38
2023-12-05T06:37:30.743Z,38.05
2023-12-05T06:39:58.285Z,36.47
2023-12-05T06:42:26.173Z,35.38
2023-12-05T06:44:53.653Z,30.73
2023-12-05T06:47:20.499Z,35.10
2023-12-05T06:49:48.414Z,39.10
2023-12-05T06:52:16.454Z,37.08
2023-12-05T06:54:46.937Z,32.97
2023-12-05T06:57:16.424Z,39.55
2023-12-05T06:59:43.633Z,41.35
2023-12-05T07:02:13.431Z,36.33
2023-12-05T07:04:40.658Z,39.85
2023-12-05T07:07:09.026Z,41.75
2023-12-05T07:09:36.444Z,40.25
2023-12-05T07:12:03.257Z,38.17
2023-12-05T07:14:30.350Z,38.45
2023-12-05T07:17:04.554Z,38.40
2023-12-05T07:19:31.688Z,38.67
2023-12-05T07:22:01.549Z,37.97
2023-12-05T07:24:28.727Z,36.72
2023-12-05T07:27:00.651Z,43.08
2023-12-05T07:29:28.341Z,36.97
2023-12-05T07:31:56.298Z,37.10
2023-12-05T07:34:23.473Z,37.03
2023-12-05T07:36:50.341Z,35.97
2023-12-05T07:39:17.555Z,33.65
2023-12-05T07:41:44.515Z,35.20
2023-12-05T07:44:11.717Z,35.83
2023-12-05T07:46:43.372Z,35.30
2023-12-05T07:49:10.866Z,40.17
2023-12-05T07:51:38.699Z,38.05
2023-12-05T07:54:06.575Z,38.40
2023-12-05T07:56:33.661Z,39.22
2023-12-05T07:59:03.327Z,37.20
2023-12-05T08:01:33.667Z,38.85
2023-12-05T08:04:04.016Z,31.58
2023-12-05T08:06:31.085Z,38.08
2023-12-05T08:08:58.357Z,38.63
2023-12-05T08:11:28.030Z,35.75
2023-12-05T08:13:55.375Z,33.30
2023-12-05T08:16:22.448Z,37.47
2023-12-05T08:18:52.665Z,34.55
2023-12-05T08:21:19.765Z,38.60
2023-12-05T08:23:46.967Z,35.83
2023-12-05T08:26:16.997Z,39.08
2023-12-05T08:28:46.988Z,39.72
2023-12-05T08:31:13.940Z,44.92
2023-12-05T08:33:41.251Z,40.13
2023-12-05T08:36:08.492Z,39.25
2023-12-05T08:38:36.945Z,38.25
2023-12-05T08:41:04.351Z,44.22
2023-12-05T08:43:31.474Z,48.95
2023-12-05T08:46:00.001Z,40.42
2023-12-05T08:48:27.268Z,40.50
2023-12-05T08:50:54.466Z,41.13
2023-12-05T08:53:21.903Z,40.03
2023-12-05T08:55:48.677Z,38.83
2023-12-05T08:58:17.257Z,40.92
2023-12-05T09:00:45.177Z,44.17
2023-12-05T09:03:15.615Z,36.20
2023-12-05T09:05:42.618Z,40.33
2023-12-05T09:08:09.957Z,36.90
2023-12-05T09:10:42.732Z,42.58
2023-12-05T09:13:09.848Z,39.28
2023-12-05T09:15:36.743Z,42.17
2023-12-05T09:18:04.952Z,38.90
2023-12-05T09:20:32.287Z,38.28
2023-12-05T09:23:01.748Z,40.90
2023-12-05T09:25:29.097Z,34.85
2023-12-05T09:27:56.266Z,38.70
2023-12-05T09:30:23.572Z,39.15
2023-12-05T09:32:50.883Z,38.33
2023-12-05T09:35:20.867Z,41.83
2023-12-05T09:37:54.736Z,40.67
2023-12-05T09:40:24.207Z,36.72
2023-12-05T09:42:59.512Z,40.22
2023-12-05T09:45:34.919Z,37.15
2023-12-05T09:48:05.232Z,33.22
2023-12-05T09:50:35.932Z,40.72
2023-12-05T09:53:04.099Z,37.55
2023-12-05T09:55:31.115Z,38.85
2023-12-05T09:57:58.689Z,34.80
2023-12-05T10:00:26.605Z,40.33
2023-12-05T10:02:56.065Z,42.63
2023-12-05T10:05:25.370Z,40.47
2023-12-05T10:07:56.632Z,38.95
2023-12-05T10:10:25.347Z,42.83
2023-12-05T10:12:53.207Z,42.00
2023-12-05T10:15:23.862Z,36.75
2023-12-05T10:17:51.448Z,40.42
2023-12-05T10:20:18.944Z,36.13
2023-12-05T10:22:46.196Z,40.20
2023-12-05T10:25:16.104Z,35.95
2023-12-05T10:27:43.404Z,41.80
2023-12-05T10:30:10.787Z,44.15
2023-12-05T10:32:38.400Z,36.35
2023-12-05T10:35:06.081Z,44.17
2023-12-05T10:37:33.471Z,40.78
2023-12-05T10:40:00.891Z,39.45
2023-12-05T10:42:31.473Z,42.63
2023-12-05T10:44:58.669Z,38.00
2023-12-05T10:47:29.373Z,40.10
2023-12-05T10:49:56.599Z,37.53
2023-12-05T10:52:26.062Z,38.30
2023-12-05T10:54:58.048Z,39.67
2023-12-05T10:57:32.146Z,42.53
2023-12-05T11:00:00.047Z,43.38
2023-12-05T11:02:28.424Z,37.05
2023-12-05T11:04:59.379Z,35.85
2023-12-05T11:07:26.445Z,39.03
2023-12-05T11:09:53.346Z,37.22
2023-12-05T11:12:25.330Z,37.72
2023-12-05T11:14:56.564Z,39.30
2023-12-05T11:17:35.517Z,39.30
2023-12-05T11:20:17.191Z,38.28
2023-12-05T11:23:03.657Z,41.55
2023-12-05T11:25:30.494Z,36.90
2023-12-05T11:28:34.413Z,37.13
2023-12-05T11:31:33.237Z,38.67
2023-12-05T11:34:19.302Z,35.03
2023-12-05T11:37:20.691Z,37.65
2023-12-05T11:39:55.236Z,42.45
2023-12-05T11:42:22.787Z,37.80
2023-12-05T11:44:52.887Z,41.85
2023-12-05T11:47:30.297Z,37.90
2023-12-05T11:50:00.781Z,40.03
2023-12-05T11:52:29.389Z,37.80
2023-12-05T11:54:58.539Z,40.28
2023-12-05T11:57:27.019Z,35.97
2023-12-05T11:59:57.329Z,38.08
2023-12-05T12:02:33.347Z,37.60
2023-12-05T12:05:01.949Z,33.28
2023-12-05T12:07:29.269Z,34.97
2023-12-05T12:09:57.356Z,39.90
2023-12-05T12:12:25.465Z,36.00
2023-12-05T12:14:54.460Z,36.55
2023-12-05T12:17:24.366Z,35.30
2023-12-05T12:19:52.061Z,42.45
2023-12-05T12:22:21.415Z,38.70
2023-12-05T12:24:48.592Z,36.17
2023-12-05T12:27:15.489Z,34.13
2023-12-05T12:29:59.497Z,36.92
2023-12-05T12:32:26.735Z,35.10
2023-12-05T12:34:55.195Z,40.33
2023-12-05T12:39:53.054Z,35.95
2023-12-05T12:42:20.055Z,39.95
2023-12-05T12:44:47.898Z,34.40
2023-12-05T12:47:15.554Z,39.38
2023-12-05T12:49:43.750Z,43.85
2023-12-05T12:52:11.299Z,39.65
2023-12-05T12:54:38.935Z,42.05
2023-12-05T12:57:08.226Z,36.60
2023-12-05T12:59:35.416Z,37.15
2023-12-05T13:02:04.090Z,37.42
2023-12-05T13:04:37.889Z,40.90
2023-12-05T13:09:33.280Z,44.17
2023-12-05T13:12:00.546Z,36.92
2023-12-05T13:14:27.965Z,40.28
2023-12-05T13:16:54.793Z,38.33
2023-12-05T13:19:32.333Z,34.92
2023-12-05T13:21:59.615Z,38.72
2023-12-05T13:24:28.405Z,40.45
2023-12-05T13:26:55.417Z,37.83
2023-12-05T13:29:22.575Z,39.42
2023-12-05T13:31:49.967Z,37.92
2023-12-05T13:34:17.272Z,36.90
2023-12-05T13:36:47.788Z,39.80
2023-12-05T13:39:16.669Z,38.92
2023-12-05T13:41:46.622Z,47.20
2023-12-05T13:44:15.834Z,44.05
2023-12-05T13:46:42.858Z,39.53
2023-12-05T13:49:15.363Z,41.40
2023-12-05T13:51:45.082Z,40.00
2023-12-05T13:54:13.355Z,44.47
2023-12-05T13:56:40.312Z,42.17
2023-12-05T13:59:07.409Z,46.08
2023-12-05T14:01:35.411Z,42.90
2023-12-05T14:04:05.777Z,47.50
2023-12-05T14:06:33.070Z,43.40
2023-12-05T14:09:00.230Z,43.58
2023-12-05T14:11:27.046Z,43.10
2023-12-05T14:13:54.145Z,43.25
2023-12-05T14:16:20.978Z,37.92
2023-12-05T14:18:48.559Z,39.20
2023-12-05T14:21:15.692Z,36.50
2023-12-05T14:23:45.558Z,47.42
2023-12-05T14:26:12.626Z,39.80
2023-12-05T14:28:40.347Z,43.95
2023-12-05T14:31:07.290Z,44.97
2023-12-05T14:33:35.796Z,39.53
2023-12-05T14:36:03.550Z,41.08
2023-12-05T14:38:33.050Z,49.30
2023-12-05T14:41:00.072Z,44.10
2023-12-05T14:43:27.695Z,41.42
2023-12-05T14:45:54.529Z,42.13
2023-12-05T14:48:25.148Z,50.35
2023-12-05T14:50:52.793Z,37.53
2023-12-05T14:53:19.892Z,43.58
2023-12-05T14:55:46.807Z,43.75
2023-12-05T14:58:14.369Z,44.33
2023-12-05T15:00:41.302Z,37.05
2023-12-05T15:03:08.800Z,44.85
2023-12-05T15:05:36.142Z,44.53
2023-12-05T15:08:04.817Z,45.45
2023-12-05T15:10:34.126Z,43.33
2023-12-05T15:13:01.269Z,40.15
2023-12-05T15:15:29.251Z,43.80
2023-12-05T15:17:56.462Z,42.80
2023-12-05T15:20:24.479Z,44.08
2023-12-05T15:22:52.432Z,39.25
2023-12-05T15:25:19.384Z,37.88
2023-12-05T15:27:46.806Z,40.97
2023-12-05T15:30:14.520Z,41.65
2023-12-05T15:32:53.483Z,42.92
2023-12-05T15:35:24.065Z,39.72
2023-12-05T15:37:51.667Z,36.75
2023-12-05T15:40:18.658Z,43.30
2023-12-05T15:42:52.955Z,36.10
2023-12-05T15:45:24.155Z,47.95
2023-12-05T15:47:51.451Z,40.22
2023-12-05T15:50:19.746Z,41.20
2023-12-05T15:52:51.035Z,44.00
2023-12-05T15:55:17.990Z,45.00
2023-12-05T15:57:45.781Z,41.90
2023-12-05T16:00:13.455Z,44.90
2023-12-05T16:02:42.647Z,43.05
2023-12-05T16:05:09.864Z,43.53
2023-12-05T16:07:37.667Z,44.47
2023-12-05T16:10:05.887Z,42.45
2023-12-05T16:12:33.113Z,43.88
2023-12-05T16:15:00.129Z,44.17
2023-12-05T16:17:27.322Z,44.97
2023-12-05T16:19:57.073Z,44.53
2023-12-05T16:22:24.841Z,45.63
2023-12-05T16:24:52.825Z,50.40
2023-12-05T16:27:25.423Z,48.22
2023-12-05T16:29:52.320Z,44.63
2023-12-05T16:32:19.577Z,42.55
2023-12-05T16:34:46.765Z,43.83
2023-12-05T16:37:14.579Z,39.55
2023-12-05T16:39:41.509Z,48.47
2023-12-05T16:42:11.924Z,45.95
2023-12-05T16:44:46.996Z,49.75
2023-12-05T16:47:14.632Z,49.88
2023-12-05T16:49:48.088Z,50.45
2023-12-05T16:52:18.083Z,43.97
2023-12-05T16:54:45.002Z,49.90
2023-12-05T16:57:13.166Z,54.15
2023-12-05T16:59:43.815Z,48.85
2023-12-05T17:02:14.246Z,53.53
2023-12-05T17:04:41.278Z,51.63
2023-12-05T17:07:11.135Z,49.25
2023-12-05T17:09:38.111Z,47.47
2023-12-05T17:12:11.775Z,51.65
2023-12-05T17:14:38.648Z,58.60
2023-12-05T17:17:05.799Z,56.65
2023-12-05T17:19:32.888Z,52.70
2023-12-05T17:22:01.165Z,54.13
2023-12-05T17:24:28.199Z,49.13
2023-12-05T17:26:55.489Z,46.65
2023-12-05T17:29:22.445Z,51.33
2023-12-05T17:31:49.535Z,45.30
2023-12-05T17:34:17.524Z,49.95
2023-12-05T17:36:47.754Z,52.53
2023-12-05T17:39:15.636Z,47.58
2023-12-05T17:41:43.438Z,47.92
2023-12-05T17:44:10.206Z,55.95
2023-12-05T17:46:37.472Z,52.97
2023-12-05T17:49:04.496Z,49.60
2023-12-05T17:51:31.922Z,50.85
2023-12-05T17:53:58.850Z,50.72
2023-12-05T17:56:26.109Z,50.28
2023-12-05T17:58:54.576Z,54.28
2023-12-05T18:01:21.817Z,48.47
2023-12-05T18:03:49.644Z,47.05
2023-12-05T18:06:20.248Z,48.85
2023-12-05T18:08:48.006Z,43.28
2023-12-05T18:11:17.545Z,51.00
2023-12-05T18:13:44.338Z,54.97
2023-12-05T18:16:14.676Z,50.40
2023-12-05T18:18:42.437Z,59.60
2023-12-05T18:21:12.285Z,45.28
2023-12-05T18:23:40.544Z,51.75
2023-12-05T18:26:11.256Z,56.00
2023-12-05T18:28:38.139Z,46.90
2023-12-05T18:31:14.258Z,50.60
2023-12-05T18:33:41.492Z,50.97
2023-12-05T18:36:11.935Z,52.55
2023-12-05T18:38:41.688Z,48.10
2023-12-05T18:41:08.799Z,47.58
2023-12-05T18:43:37.131Z,46.33
2023-12-05T18:46:05.070Z,49.33
2023-12-05T18:48:32.859Z,51.22
2023-12-05T18:51:01.106Z,49.20
2023-12-05T18:53:29.718Z,50.78
2023-12-05T18:56:01.384Z,51.30
2023-12-05T18:58:28.367Z,45.75
2023-12-05T19:00:55.509Z,45.47
2023-12-05T19:03:22.453Z,52.70
2023-12-05T19:05:51.115Z,43.20
2023-12-05T19:08:18.602Z,50.17
2023-12-05T19:10:45.970Z,49.85
2023-12-05T19:13:13.819Z,54.03
2023-12-05T19:15:40.850Z,48.53
2023-12-05T19:18:07.973Z,49.50
2023-12-05T19:20:35.224Z,50.50
2023-12-05T19:23:02.141Z,52.58
2023-12-05T19:25:29.348Z,47.63
2023-12-05T19:27:56.666Z,50.58
2023-12-05T19:30:24.020Z,52.65
2023-12-05T19:32:51.948Z,61.72
2023-12-05T19:35:19.094Z,49.53
2023-12-05T19:37:46.868Z,51.85
2023-12-05T19:40:13.972Z,45.05
2023-12-05T19:42:41.760Z,48.03
2023-12-05T19:45:09.242Z,52.40
2023-12-05T19:47:36.760Z,44.75
2023-12-05T19:50:04.415Z,49.90
2023-12-05T19:52:31.270Z,55.28
2023-12-05T19:54:58.491Z,49.60
2023-12-05T19:57:25.594Z,47.63
2023-12-05T19:59:52.744Z,50.22
2023-12-05T20:02:19.526Z,53.08
2023-12-05T20:04:47.403Z,55.22
2023-12-05T20:07:14.467Z,50.95
2023-12-05T20:09:42.248Z,46.95
2023-12-05T20:12:09.204Z,49.03
2023-12-05T20:14:36.561Z,47.42
2023-12-05T20:17:04.454Z,49.45
2023-12-05T20:19:31.721Z,47.53
2023-12-05T20:21:58.777Z,47.10
2023-12-05T20:24:26.074Z,55.10
2023-12-05T20:26:53.323Z,55.75
2023-12-05T20:29:20.399Z,48.70
2023-12-05T20:31:47.202Z,58.88
2023-12-05T20:34:14.399Z,55.83
2023-12-05T20:36:41.751Z,49.42
2023-12-05T20:39:10.404Z,50.22
2023-12-05T20:41:37.298Z,50.00
2023-12-05T20:44:04.824Z,49.45
2023-12-05T20:46:31.770Z,51.65
2023-12-05T20:48:58.993Z,48.72
2023-12-05T20:51:25.915Z,46.78
2023-12-05T20:53:54.679Z,44.45
2023-12-05T20:56:24.728Z,43.00
2023-12-05T20:58:51.854Z,49.80
2023-12-05T21:01:19.988Z,47.58
2023-12-05T21:03:47.621Z,52.28
2023-12-05T21:06:14.663Z,46.35
2023-12-05T21:09:10.004Z,53.60
2023-12-05T21:11:28.711Z,49.47
2023-12-05T21:13:56.150Z,54.90
2023-12-05T21:16:23.086Z,47.55
2023-12-05T21:18:50.999Z,52.55
2023-12-05T21:21:18.774Z,52.08
2023-12-05T21:23:46.289Z,48.50
2023-12-05T21:26:15.448Z,44.22
2023-12-05T21:28:42.633Z,50.63
2023-12-05T21:31:10.277Z,55.22
2023-12-05T21:33:37.773Z,48.95
2023-12-05T21:36:05.154Z,49.65
2023-12-05T21:38:32.402Z,47.65
2023-12-05T21:40:59.347Z,48.30
2023-12-05T21:43:28.019Z,46.50
2023-12-05T21:45:57.376Z,50.50
2023-12-05T21:48:25.065Z,45.83
2023-12-05T21:50:51.969Z,46.17
2023-12-05T21:53:19.145Z,54.75
2023-12-05T21:55:45.972Z,47.75
2023-12-05T21:58:13.225Z,48.13
2023-12-05T22:00:40.194Z,50.80
2023-12-05T22:03:07.335Z,49.05
2023-12-05T22:05:34.206Z,47.63
2023-12-05T22:08:01.292Z,49.88
2023-12-05T22:10:28.132Z,50.95
2023-12-05T22:12:55.277Z,48.13
2023-12-05T22:15:22.340Z,47.10
2023-12-05T22:17:50.441Z,45.50
2023-12-05T22:20:17.724Z,40.40
2023-12-05T22:22:45.003Z,47.30
2023-12-05T22:25:12.126Z,43.03
2023-12-05T22:27:39.350Z,45.03
2023-12-05T22:30:07.239Z,44.80
2023-12-05T22:32:34.680Z,47.47
2023-12-05T22:35:01.653Z,48.55
2023-12-05T22:37:28.872Z,45.08
2023-12-05T22:39:55.920Z,45.85
2023-12-05T22:42:24.709Z,50.78
2023-12-05T22:44:51.623Z,47.13
2023-12-05T22:47:19.013Z,46.78
2023-12-05T22:49:48.705Z,46.65
2023-12-05T22:52:16.086Z,48.75
2023-12-05T22:54:42.976Z,50.33
2023-12-05T22:57:10.229Z,50.90
2023-12-05T22:59:38.401Z,47.00
2023-12-05T23:02:05.520Z,53.00
2023-12-05T23:04:32.478Z,54.15
2023-12-05T23:06:59.595Z,49.83
2023-12-05T23:09:26.410Z,54.08
2023-12-05T23:11:53.536Z,49.25
2023-12-05T23:14:20.397Z,54.45
2023-12-05T23:16:47.517Z,52.00
2023-12-05T23:19:14.692Z,46.67
2023-12-05T23:21:42.117Z,54.83
2023-12-05T23:24:09.071Z,50.72
2023-12-05T23:26:36.183Z,45.42
2023-12-05T23:29:03.070Z,53.13
2023-12-05T23:31:30.165Z,53.60
2023-12-05T23:33:57.074Z,57.67
2023-12-05T23:36:24.213Z,50.83
2023-12-05T23:38:51.660Z,51.70
2023-12-05T23:41:18.810Z,51.90
2023-12-05T23:43:45.647Z,56.38
2023-12-05T23:46:15.672Z,54.22
2023-12-05T23:48:42.773Z,55.42
2023-12-05T23:51:09.934Z,59.33
2023-12-05T23:53:37.237Z,56.05
2023-12-05T23:56:04.554Z,48.13
2023-12-05T23:58:31.324Z,51.75
